createdAt,value
2023-08-29T00:00:21.539Z,97424.00
2023-08-29T00:03:09.188Z,97424.00
2023-08-29T00:06:06.882Z,97429.00
2023-08-29T00:08:54.358Z,97432.00
2023-08-29T00:11:41.855Z,97422.00
2023-08-29T00:14:29.344Z,97417.00
2023-08-29T00:17:17.498Z,97420.00
2023-08-29T00:20:05.579Z,97412.00
2023-08-29T00:22:53.050Z,97415.00
2023-08-29T00:25:41.539Z,97428.00
2023-08-29T00:28:29.070Z,97436.00
2023-08-29T00:31:16.632Z,97424.00
2023-08-29T00:34:04.190Z,97436.00
2023-08-29T00:36:53.139Z,97432.00
2023-08-29T00:39:40.864Z,97407.00
2023-08-29T00:42:28.383Z,97384.00
2023-08-29T00:45:16.024Z,97377.00
2023-08-29T00:48:05.698Z,97378.00
2023-08-29T00:50:54.003Z,97383.00
2023-08-29T00:53:42.535Z,97384.00
2023-08-29T00:56:30.483Z,97387.00
2023-08-29T00:59:18.301Z,97379.00
2023-08-29T01:02:06.257Z,97370.00
2023-08-29T01:04:54.323Z,97365.00
2023-08-29T01:07:41.966Z,97369.00
2023-08-29T01:10:43.939Z,97375.00
2023-08-29T01:13:51.952Z,97387.00
2023-08-29T01:17:10.329Z,97391.00
2023-08-29T01:19:59.753Z,97380.00
2023-08-29T01:23:18.268Z,97369.00
2023-08-29T01:26:16.808Z,97372.00
2023-08-29T01:29:05.450Z,97386.00
2023-08-29T01:31:53.179Z,97384.00
2023-08-29T01:34:43.327Z,97393.00
2023-08-29T01:37:30.805Z,97393.00
2023-08-29T01:40:18.437Z,97400.00
2023-08-29T01:43:06.489Z,97406.00
2023-08-29T01:45:54.055Z,97398.00
2023-08-29T01:48:42.495Z,97409.00
2023-08-29T01:51:30.821Z,97404.00
2023-08-29T01:54:18.446Z,97391.00
2023-08-29T01:57:10.331Z,97390.00
2023-08-29T01:59:59.269Z,97385.00
2023-08-29T02:02:46.857Z,97382.00
2023-08-29T02:05:34.308Z,97385.00
2023-08-29T02:08:21.901Z,97392.00
2023-08-29T02:11:09.587Z,97386.00
2023-08-29T02:13:57.192Z,97384.00
2023-08-29T02:16:44.749Z,97393.00
2023-08-29T02:19:32.700Z,97397.00
2023-08-29T02:22:20.171Z,97397.00
2023-08-29T02:25:09.118Z,97389.00
2023-08-29T02:27:56.680Z,97398.00
2023-08-29T02:30:44.243Z,97392.00
2023-08-29T02:33:32.158Z,97385.00
2023-08-29T02:36:19.707Z,97393.00
2023-08-29T02:39:08.797Z,97383.00
2023-08-29T02:41:56.439Z,97369.00
2023-08-29T02:44:44.261Z,97375.00
2023-08-29T02:47:31.863Z,97360.00
2023-08-29T02:50:19.375Z,97356.00
2023-08-29T02:53:06.985Z,97364.00
2023-08-29T02:55:55.126Z,97359.00
2023-08-29T02:58:43.337Z,97356.00
2023-08-29T03:01:30.894Z,97353.00
2023-08-29T03:04:18.450Z,97342.00
2023-08-29T03:07:06.766Z,97346.00
2023-08-29T03:09:54.256Z,97350.00
2023-08-29T03:12:41.812Z,97346.00
2023-08-29T03:15:34.317Z,97337.00
2023-08-29T03:18:21.923Z,97342.00
2023-08-29T03:21:10.009Z,97359.00
2023-08-29T03:23:57.472Z,97353.00
2023-08-29T03:26:45.022Z,97354.00
2023-08-29T03:29:32.966Z,97365.00
2023-08-29T03:32:20.426Z,97361.00
2023-08-29T03:35:08.861Z,97359.00
2023-08-29T03:38:00.270Z,97364.00
2023-08-29T03:40:55.934Z,97371.00
2023-08-29T03:43:43.473Z,97372.00
2023-08-29T03:46:31.122Z,97369.00
2023-08-29T03:49:18.674Z,97362.00
2023-08-29T03:52:06.398Z,97362.00
2023-08-29T03:54:55.404Z,97360.00
2023-08-29T03:57:42.954Z,97361.00
2023-08-29T04:00:30.533Z,97361.00
2023-08-29T04:03:18.715Z,97356.00
2023-08-29T04:06:06.329Z,97359.00
2023-08-29T04:08:55.770Z,97348.00
2023-08-29T04:11:43.215Z,97343.00
2023-08-29T04:14:30.799Z,97349.00
2023-08-29T04:17:18.305Z,97354.00
2023-08-29T04:20:10.389Z,97358.00
2023-08-29T04:22:59.338Z,97357.00
2023-08-29T04:25:46.826Z,97358.00
2023-08-29T04:28:34.436Z,97368.00
2023-08-29T04:31:22.420Z,97370.00
2023-08-29T04:34:10.007Z,97367.00
2023-08-29T04:36:57.560Z,97373.00
2023-08-29T04:39:45.548Z,97381.00
2023-08-29T04:42:38.352Z,97379.00
2023-08-29T04:45:25.890Z,97375.00
2023-08-29T04:48:14.610Z,97385.00
2023-08-29T04:51:05.453Z,97379.00
2023-08-29T04:53:53.030Z,97376.00
2023-08-29T04:56:40.570Z,97382.00
2023-08-29T04:59:28.021Z,97386.00
2023-08-29T05:02:15.979Z,97391.00
2023-08-29T05:05:04.165Z,97396.00
2023-08-29T05:07:51.685Z,97403.00
2023-08-29T05:10:39.194Z,97401.00
2023-08-29T05:13:26.640Z,97412.00
2023-08-29T05:16:14.200Z,97412.00
2023-08-29T05:19:01.679Z,97409.00
2023-08-29T05:21:49.130Z,97410.00
2023-08-29T05:24:36.891Z,97414.00
2023-08-29T05:27:24.411Z,97411.00
2023-08-29T05:30:12.313Z,97406.00
2023-08-29T05:33:00.328Z,97403.00
2023-08-29T05:35:47.897Z,97407.00
2023-08-29T05:38:35.384Z,97411.00
2023-08-29T05:41:23.074Z,97414.00
2023-08-29T05:44:10.569Z,97425.00
2023-08-29T05:46:58.063Z,97434.00
2023-08-29T05:49:45.829Z,97432.00
2023-08-29T05:52:33.387Z,97433.00
2023-08-29T05:55:20.934Z,97444.00
2023-08-29T05:58:08.905Z,97445.00
2023-08-29T06:00:56.861Z,97445.00
2023-08-29T06:03:44.673Z,97447.00
2023-08-29T06:06:33.126Z,97441.00
2023-08-29T06:09:20.761Z,97451.00
2023-08-29T06:12:08.689Z,97452.00
2023-08-29T06:14:56.275Z,97453.00
2023-08-29T06:17:43.866Z,97460.00
2023-08-29T06:20:32.924Z,97456.00
2023-08-29T06:23:20.490Z,97473.00
2023-08-29T06:26:08.122Z,97477.00
2023-08-29T06:28:55.604Z,97474.00
2023-08-29T06:31:43.244Z,97483.00
2023-08-29T06:34:30.750Z,97483.00
2023-08-29T06:37:18.264Z,97479.00
2023-08-29T06:40:07.165Z,97492.00
2023-08-29T06:42:54.716Z,97491.00
2023-08-29T06:45:42.333Z,97492.00
2023-08-29T06:48:29.817Z,97502.00
2023-08-29T06:51:17.393Z,97512.00
2023-08-29T06:54:05.226Z,97519.00
2023-08-29T06:56:52.727Z,97522.00
2023-08-29T06:59:40.843Z,97529.00
2023-08-29T07:02:28.452Z,97542.00
2023-08-29T07:05:16.211Z,97541.00
2023-08-29T07:08:05.581Z,97541.00
2023-08-29T07:10:53.654Z,97533.00
2023-08-29T07:13:41.151Z,97536.00
2023-08-29T07:16:28.724Z,97541.00
2023-08-29T07:19:16.259Z,97537.00
2023-08-29T07:22:09.676Z,97539.00
2023-08-29T07:25:09.449Z,97545.00
2023-08-29T07:27:56.914Z,97544.00
2023-08-29T07:30:51.437Z,97539.00
2023-08-29T07:33:39.434Z,97547.00
2023-08-29T07:36:27.022Z,97551.00
2023-08-29T07:39:16.074Z,97552.00
2023-08-29T07:42:04.529Z,97561.00
2023-08-29T07:44:52.290Z,97555.00
2023-08-29T07:47:40.256Z,97553.00
2023-08-29T07:50:29.019Z,97567.00
2023-08-29T07:53:16.561Z,97566.00
2023-08-29T07:56:04.532Z,97568.00
2023-08-29T07:58:52.030Z,97573.00
2023-08-29T08:01:39.589Z,97580.00
2023-08-29T08:04:27.248Z,97567.00
2023-08-29T08:07:14.836Z,97565.00
2023-08-29T08:10:02.356Z,97574.00
2023-08-29T08:12:50.584Z,97568.00
2023-08-29T08:15:38.082Z,97571.00
2023-08-29T08:18:25.675Z,97575.00
2023-08-29T08:21:13.216Z,97576.00
2023-08-29T08:24:00.864Z,97586.00
2023-08-29T08:26:48.658Z,97593.00
2023-08-29T08:29:36.825Z,97594.00
2023-08-29T08:32:27.825Z,97600.00
2023-08-29T08:35:15.344Z,97602.00
2023-08-29T08:38:03.471Z,97599.00
2023-08-29T08:40:55.638Z,97601.00
2023-08-29T08:43:44.265Z,97605.00
2023-08-29T08:46:33.245Z,97601.00
2023-08-29T08:49:21.607Z,97596.00
2023-08-29T08:52:11.677Z,97592.00
2023-08-29T08:54:59.228Z,97594.00
2023-08-29T08:57:47.942Z,97596.00
2023-08-29T09:00:35.607Z,97589.00
2023-08-29T09:03:23.376Z,97591.00
2023-08-29T09:06:13.947Z,97586.00
2023-08-29T09:09:25.749Z,97596.00
2023-08-29T09:12:17.695Z,97603.00
2023-08-29T09:15:06.306Z,97607.00
2023-08-29T09:17:55.553Z,97609.00
2023-08-29T09:20:46.070Z,97611.00
2023-08-29T09:23:39.375Z,97614.00
2023-08-29T09:26:33.640Z,97626.00
2023-08-29T09:29:22.537Z,97623.00
2023-08-29T09:32:15.212Z,97637.00
2023-08-29T09:35:06.808Z,97632.00
2023-08-29T09:37:56.558Z,97642.00
2023-08-29T09:40:53.036Z,97632.00
2023-08-29T09:43:51.865Z,97643.00
2023-08-29T09:46:45.758Z,97639.00
2023-08-29T09:49:48.765Z,97633.00
2023-08-29T09:52:37.472Z,97635.00
2023-08-29T09:55:27.255Z,97635.00
2023-08-29T09:58:17.221Z,97625.00
2023-08-29T10:01:09.713Z,97638.00
2023-08-29T10:04:01.826Z,97630.00
2023-08-29T10:06:52.572Z,97627.00
2023-08-29T10:09:40.819Z,97628.00
2023-08-29T10:12:29.809Z,97648.00
2023-08-29T10:15:19.458Z,97649.00
2023-08-29T10:18:09.138Z,97649.00
2023-08-29T10:21:03.329Z,97648.00
2023-08-29T10:23:53.909Z,97637.00
2023-08-29T10:26:43.739Z,97638.00
2023-08-29T10:29:34.959Z,97646.00
2023-08-29T10:32:27.819Z,97648.00
2023-08-29T10:35:20.470Z,97655.00
2023-08-29T10:38:15.768Z,97662.00
2023-08-29T10:41:12.275Z,97667.00
2023-08-29T10:44:26.034Z,97664.00
2023-08-29T10:47:33.466Z,97652.00
2023-08-29T10:50:27.152Z,97648.00
2023-08-29T10:53:23.273Z,97642.00
2023-08-29T10:56:11.226Z,97654.00
2023-08-29T10:58:59.636Z,97651.00
2023-08-29T11:01:47.134Z,97649.00
2023-08-29T11:04:45.540Z,97659.00
2023-08-29T11:07:42.686Z,97652.00
2023-08-29T11:10:30.203Z,97660.00
2023-08-29T11:13:18.126Z,97659.00
2023-08-29T11:16:07.231Z,97658.00
2023-08-29T11:19:13.540Z,97657.00
2023-08-29T11:22:01.195Z,97646.00
2023-08-29T11:24:53.260Z,97649.00
2023-08-29T11:27:41.918Z,97652.00
2023-08-29T11:30:42.356Z,97641.00
2023-08-29T11:33:37.278Z,97639.00
2023-08-29T11:36:33.109Z,97646.00
2023-08-29T11:39:23.697Z,97643.00
2023-08-29T11:42:11.841Z,97656.00
2023-08-29T11:45:46.694Z,97651.00
2023-08-29T11:48:28.015Z,97645.00
2023-08-29T11:51:16.945Z,97638.00
2023-08-29T11:54:05.318Z,97639.00
2023-08-29T11:56:56.894Z,97642.00
2023-08-29T11:59:47.286Z,97639.00
2023-08-29T12:02:35.018Z,97633.00
2023-08-29T12:05:22.621Z,97633.00
2023-08-29T12:08:10.257Z,97637.00
2023-08-29T12:10:57.837Z,97637.00
2023-08-29T12:14:11.777Z,97650.00
2023-08-29T12:16:59.328Z,97646.00
2023-08-29T12:19:50.056Z,97651.00
2023-08-29T12:22:39.922Z,97658.00
2023-08-29T12:25:28.356Z,97653.00
2023-08-29T12:28:15.943Z,97643.00
2023-08-29T12:31:03.560Z,97650.00
2023-08-29T12:33:51.247Z,97658.00
2023-08-29T12:36:38.964Z,97655.00
2023-08-29T12:39:26.480Z,97650.00
2023-08-29T12:42:14.653Z,97645.00
2023-08-29T12:45:02.228Z,97645.00
2023-08-29T12:47:52.246Z,97650.00
2023-08-29T12:50:39.999Z,97647.00
2023-08-29T12:53:28.508Z,97638.00
2023-08-29T12:56:16.883Z,97634.00
2023-08-29T12:59:04.428Z,97630.00
2023-08-29T13:01:51.972Z,97631.00
2023-08-29T13:04:39.531Z,97629.00
2023-08-29T13:07:27.079Z,97624.00
2023-08-29T13:10:14.821Z,97622.00
2023-08-29T13:13:02.713Z,97633.00
2023-08-29T13:15:51.810Z,97627.00
2023-08-29T13:18:39.522Z,97613.00
2023-08-29T13:21:27.106Z,97622.00
2023-08-29T13:24:14.672Z,97624.00
2023-08-29T13:27:02.200Z,97632.00
2023-08-29T13:29:49.697Z,97634.00
2023-08-29T13:32:37.207Z,97635.00
2023-08-29T13:35:25.204Z,97628.00
2023-08-29T13:38:12.734Z,97630.00
2023-08-29T13:41:00.293Z,97631.00
2023-08-29T13:43:47.847Z,97626.00
2023-08-29T13:46:35.681Z,97638.00
2023-08-29T13:49:23.185Z,97635.00
2023-08-29T13:52:10.731Z,97639.00
2023-08-29T13:54:58.344Z,97640.00
2023-08-29T13:57:46.061Z,97642.00
2023-08-29T14:00:33.571Z,97644.00
2023-08-29T14:03:33.316Z,97650.00
2023-08-29T14:06:21.106Z,97642.00
2023-08-29T14:09:08.597Z,97643.00
2023-08-29T14:11:56.189Z,97641.00
2023-08-29T14:14:44.347Z,97649.00
2023-08-29T14:17:32.103Z,97648.00
2023-08-29T14:20:19.676Z,97643.00
2023-08-29T14:23:07.141Z,97649.00
2023-08-29T14:25:55.275Z,97656.00
2023-08-29T14:28:42.846Z,97645.00
2023-08-29T14:31:33.369Z,97649.00
2023-08-29T14:34:20.944Z,97655.00
2023-08-29T14:37:08.641Z,97656.00
2023-08-29T14:39:56.169Z,97662.00
2023-08-29T14:42:43.769Z,97666.00
2023-08-29T14:45:31.497Z,97673.00
2023-08-29T14:48:18.939Z,97663.00
2023-08-29T14:51:07.708Z,97667.00
2023-08-29T14:53:55.185Z,97663.00
2023-08-29T14:56:42.893Z,97670.00
2023-08-29T14:59:30.367Z,97668.00
2023-08-29T15:02:17.965Z,97671.00
2023-08-29T15:05:06.003Z,97670.00
2023-08-29T15:07:53.547Z,97669.00
2023-08-29T15:10:41.048Z,97660.00
2023-08-29T15:13:29.390Z,97667.00
2023-08-29T15:16:17.120Z,97674.00
2023-08-29T15:19:04.923Z,97678.00
2023-08-29T15:21:52.468Z,97675.00
2023-08-29T15:24:39.964Z,97674.00
2023-08-29T15:27:27.544Z,97670.00
2023-08-29T15:30:15.108Z,97673.00
2023-08-29T15:33:02.760Z,97666.00
2023-08-29T15:35:50.284Z,97666.00
2023-08-29T15:38:40.612Z,97674.00
2023-08-29T15:41:28.210Z,97679.00
2023-08-29T15:44:15.708Z,97678.00
2023-08-29T15:47:03.474Z,97682.00
2023-08-29T15:49:50.989Z,97685.00
2023-08-29T15:52:38.691Z,97698.00
2023-08-29T15:55:26.200Z,97702.00
2023-08-29T15:58:15.543Z,97702.00
2023-08-29T16:01:11.628Z,97700.00
2023-08-29T16:03:59.270Z,97702.00
2023-08-29T16:06:46.840Z,97710.00
2023-08-29T16:09:34.515Z,97717.00
2023-08-29T16:12:22.069Z,97720.00
2023-08-29T16:15:10.936Z,97719.00
2023-08-29T16:17:58.591Z,97713.00
2023-08-29T16:20:46.134Z,97716.00
2023-08-29T16:23:33.855Z,97722.00
2023-08-29T16:26:22.619Z,97722.00
2023-08-29T16:29:12.433Z,97723.00
2023-08-29T16:32:00.539Z,97729.00
2023-08-29T16:34:48.065Z,97730.00
2023-08-29T16:37:41.145Z,97730.00
2023-08-29T16:40:30.847Z,97720.00
2023-08-29T16:43:18.356Z,97724.00
2023-08-29T16:46:05.898Z,97730.00
2023-08-29T16:48:53.480Z,97721.00
2023-08-29T16:51:41.666Z,97718.00
2023-08-29T16:54:29.180Z,97712.00
2023-08-29T16:57:18.337Z,97721.00
2023-08-29T17:00:11.683Z,97718.00
2023-08-29T17:02:59.876Z,97719.00
2023-08-29T17:05:47.516Z,97716.00
2023-08-29T17:08:35.098Z,97717.00
2023-08-29T17:11:24.108Z,97718.00
2023-08-29T17:14:11.668Z,97714.00
2023-08-29T17:16:59.295Z,97716.00
2023-08-29T17:19:47.446Z,97728.00
2023-08-29T17:22:35.018Z,97718.00
2023-08-29T17:25:22.542Z,97719.00
2023-08-29T17:28:15.379Z,97721.00
2023-08-29T17:31:02.920Z,97710.00
2023-08-29T17:33:50.527Z,97714.00
2023-08-29T17:36:38.057Z,97719.00
2023-08-29T17:39:25.655Z,97717.00
2023-08-29T17:42:13.164Z,97707.00
2023-08-29T17:45:00.817Z,97712.00
2023-08-29T17:47:48.456Z,97709.00
2023-08-29T17:50:36.007Z,97706.00
2023-08-29T17:53:23.568Z,97708.00
2023-08-29T17:56:11.172Z,97709.00
2023-08-29T17:58:59.560Z,97713.00
2023-08-29T18:01:47.166Z,97707.00
2023-08-29T18:04:34.743Z,97716.00
2023-08-29T18:07:22.431Z,97713.00
2023-08-29T18:10:14.466Z,97724.00
2023-08-29T18:13:02.032Z,97723.00
2023-08-29T18:15:52.042Z,97722.00
2023-08-29T18:18:39.972Z,97724.00
2023-08-29T18:21:27.413Z,97731.00
2023-08-29T18:24:14.990Z,97729.00
2023-08-29T18:27:02.966Z,97728.00
2023-08-29T18:29:50.740Z,97731.00
2023-08-29T18:32:38.253Z,97729.00
2023-08-29T18:35:25.887Z,97731.00
2023-08-29T18:38:13.533Z,97730.00
2023-08-29T18:41:01.004Z,97732.00
2023-08-29T18:43:49.828Z,97732.00
2023-08-29T18:46:37.439Z,97732.00
2023-08-29T18:49:25.381Z,97736.00
2023-08-29T18:52:13.552Z,97734.00
2023-08-29T18:55:01.109Z,97732.00
2023-08-29T18:57:48.625Z,97725.00
2023-08-29T19:00:36.150Z,97728.00
2023-08-29T19:03:23.662Z,97729.00
2023-08-29T19:06:15.048Z,97728.00
2023-08-29T19:09:03.128Z,97723.00
2023-08-29T19:11:51.216Z,97734.00
2023-08-29T19:14:38.899Z,97724.00
2023-08-29T19:17:27.074Z,97721.00
2023-08-29T19:20:14.630Z,97724.00
2023-08-29T19:23:02.197Z,97734.00
2023-08-29T19:25:50.123Z,97719.00
2023-08-29T19:28:37.585Z,97720.00
2023-08-29T19:31:25.124Z,97720.00
2023-08-29T19:34:12.685Z,97730.00
2023-08-29T19:37:00.177Z,97728.00
2023-08-29T19:39:47.723Z,97726.00
2023-08-29T19:42:35.218Z,97729.00
2023-08-29T19:45:23.046Z,97727.00
2023-08-29T19:48:10.983Z,97731.00
2023-08-29T19:50:59.464Z,97734.00
2023-08-29T19:53:51.675Z,97717.00
2023-08-29T19:56:39.217Z,97727.00
2023-08-29T19:59:26.705Z,97724.00
2023-08-29T20:02:14.642Z,97728.00
2023-08-29T20:05:05.117Z,97728.00
2023-08-29T20:07:52.800Z,97729.00
2023-08-29T20:10:41.243Z,97721.00
2023-08-29T20:13:28.719Z,97716.00
2023-08-29T20:16:16.321Z,97721.00
2023-08-29T20:19:03.825Z,97715.00
2023-08-29T20:21:52.591Z,97724.00
2023-08-29T20:24:41.178Z,97719.00
2023-08-29T20:27:28.679Z,97722.00
2023-08-29T20:30:17.254Z,97729.00
2023-08-29T20:33:06.997Z,97731.00
2023-08-29T20:35:54.550Z,97730.00
2023-08-29T20:38:42.941Z,97731.00
2023-08-29T20:41:30.416Z,97736.00
2023-08-29T20:44:17.942Z,97740.00
2023-08-29T20:47:05.654Z,97745.00
2023-08-29T20:49:53.149Z,97742.00
2023-08-29T20:52:40.859Z,97749.00
2023-08-29T20:55:28.427Z,97757.00
2023-08-29T20:58:15.914Z,97748.00
2023-08-29T21:01:04.683Z,97743.00
2023-08-29T21:03:52.902Z,97759.00
2023-08-29T21:06:40.514Z,97754.00
2023-08-29T21:09:28.116Z,97745.00
2023-08-29T21:12:17.228Z,97753.00
2023-08-29T21:15:05.703Z,97754.00
2023-08-29T21:17:53.230Z,97752.00
2023-08-29T21:21:08.820Z,97753.00
2023-08-29T21:23:56.359Z,97762.00
2023-08-29T21:26:44.374Z,97754.00
2023-08-29T21:29:31.912Z,97750.00
2023-08-29T21:32:19.360Z,97749.00
2023-08-29T21:35:07.776Z,97749.00
2023-08-29T21:37:55.299Z,97742.00
2023-08-29T21:40:44.771Z,97743.00
2023-08-29T21:43:32.835Z,97743.00
2023-08-29T21:46:20.402Z,97738.00
2023-08-29T21:49:08.099Z,97739.00
2023-08-29T21:51:55.559Z,97731.00
2023-08-29T21:54:43.051Z,97729.00
2023-08-29T21:57:30.534Z,97728.00
2023-08-29T22:00:18.548Z,97723.00
2023-08-29T22:03:07.106Z,97720.00
2023-08-29T22:05:54.780Z,97721.00
2023-08-29T22:08:42.355Z,97714.00
2023-08-29T22:11:30.218Z,97703.00
2023-08-29T22:14:17.730Z,97709.00
2023-08-29T22:17:05.366Z,97708.00
2023-08-29T22:19:52.901Z,97707.00
2023-08-29T22:22:41.827Z,97714.00
2023-08-29T22:25:29.614Z,97712.00
2023-08-29T22:28:17.080Z,97718.00
2023-08-29T22:31:05.000Z,97716.00
2023-08-29T22:33:52.492Z,97721.00
2023-08-29T22:36:39.972Z,97721.00
2023-08-29T22:39:27.550Z,97723.00
2023-08-29T22:42:15.735Z,97723.00
2023-08-29T22:45:04.475Z,97715.00
2023-08-29T22:47:52.089Z,97720.00
2023-08-29T22:50:39.669Z,97718.00
2023-08-29T22:53:27.331Z,97719.00
2023-08-29T22:56:15.280Z,97713.00
2023-08-29T22:59:02.804Z,97718.00
2023-08-29T23:01:50.571Z,97711.00
2023-08-29T23:04:38.021Z,97714.00
2023-08-29T23:07:25.517Z,97716.00
2023-08-29T23:10:14.651Z,97717.00
2023-08-29T23:13:03.584Z,97710.00
2023-08-29T23:15:51.569Z,97718.00
2023-08-29T23:18:43.463Z,97720.00
2023-08-29T23:21:30.979Z,97715.00
2023-08-29T23:24:18.608Z,97708.00
2023-08-29T23:27:07.459Z,97715.00
2023-08-29T23:29:55.085Z,97713.00
2023-08-29T23:32:44.493Z,97716.00
2023-08-29T23:35:32.081Z,97714.00
2023-08-29T23:38:20.701Z,97723.00
2023-08-29T23:41:08.214Z,97718.00
2023-08-29T23:43:56.561Z,97718.00
2023-08-29T23:46:44.105Z,97727.00
2023-08-29T23:49:31.699Z,97721.00
2023-08-29T23:52:19.335Z,97729.00
2023-08-29T23:55:07.901Z,97726.00
2023-08-29T23:57:55.374Z,97724.00
